createdAt,value
2019-03-20T00:00:43.043Z,3.43
2019-03-20T00:03:14.268Z,3.38
2019-03-20T00:05:45.388Z,3.37
2019-03-20T00:08:16.675Z,3.34
2019-03-20T00:10:47.875Z,3.36
2019-03-20T00:13:19.212Z,3.39
2019-03-20T00:15:50.626Z,3.44
2019-03-20T00:18:21.871Z,3.42
2019-03-20T00:20:53.179Z,3.36
2019-03-20T00:23:24.452Z,3.27
2019-03-20T00:25:55.714Z,3.16
2019-03-20T00:28:26.905Z,3.12
2019-03-20T00:30:58.184Z,3.20
2019-03-20T00:33:29.345Z,3.35
2019-03-20T00:36:00.637Z,3.44
2019-03-20T00:38:32.043Z,3.50
2019-03-20T00:41:03.279Z,3.46
2019-03-20T00:43:34.468Z,3.36
2019-03-20T00:46:05.737Z,3.30
2019-03-20T00:48:36.994Z,3.30
2019-03-20T00:51:08.201Z,3.37
2019-03-20T00:53:39.466Z,3.35
2019-03-20T00:56:10.685Z,3.29
2019-03-20T00:58:41.984Z,3.29
2019-03-20T01:01:13.271Z,3.33
2019-03-20T01:03:44.538Z,3.33
2019-03-20T01:06:15.887Z,3.29
2019-03-20T01:08:47.311Z,3.27
2019-03-20T01:11:18.597Z,3.25
2019-03-20T01:13:50.000Z,3.28
2019-03-20T01:16:21.233Z,3.36
2019-03-20T01:18:52.472Z,3.44
2019-03-20T01:21:23.823Z,3.50
2019-03-20T01:23:54.955Z,3.49
2019-03-20T01:26:26.064Z,3.56
2019-03-20T01:28:57.340Z,3.62
2019-03-20T01:31:28.693Z,3.50
2019-03-20T01:34:00.036Z,3.46
2019-03-20T01:36:31.336Z,3.45
2019-03-20T01:39:02.673Z,3.18
2019-03-20T01:41:38.139Z,2.95
2019-03-20T01:44:09.815Z,2.71
2019-03-20T01:46:42.243Z,2.60
2019-03-20T01:49:13.543Z,2.47
2019-03-20T01:51:44.776Z,2.39
2019-03-20T01:54:16.088Z,2.35
2019-03-20T01:56:47.378Z,2.29
2019-03-20T01:59:18.679Z,2.21
2019-03-20T02:01:49.926Z,2.30
2019-03-20T02:04:21.300Z,2.31
2019-03-20T02:06:52.563Z,2.28
2019-03-20T02:09:24.952Z,2.20
2019-03-20T02:11:56.208Z,2.10
2019-03-20T02:14:27.532Z,2.07
2019-03-20T02:16:58.733Z,2.03
2019-03-20T02:19:29.911Z,1.94
2019-03-20T02:22:01.171Z,1.86
2019-03-20T02:24:32.497Z,1.69
2019-03-20T02:27:03.759Z,1.57
2019-03-20T02:29:35.027Z,1.51
2019-03-20T02:32:06.390Z,1.53
2019-03-20T02:34:37.635Z,1.60
2019-03-20T02:37:08.848Z,1.55
2019-03-20T02:39:40.092Z,1.50
2019-03-20T02:42:11.434Z,1.45
2019-03-20T02:44:42.647Z,1.42
2019-03-20T02:47:14.076Z,1.44
2019-03-20T02:49:45.243Z,1.42
2019-03-20T02:52:16.520Z,1.31
2019-03-20T02:54:47.806Z,1.33
2019-03-20T02:57:19.022Z,1.43
2019-03-20T02:59:50.488Z,1.39
2019-03-20T03:02:22.757Z,1.46
2019-03-20T03:04:54.084Z,1.52
2019-03-20T03:07:26.462Z,1.47
2019-03-20T03:09:57.807Z,1.33
2019-03-20T03:12:28.959Z,1.17
2019-03-20T03:15:00.540Z,1.09
2019-03-20T03:17:32.841Z,1.04
2019-03-20T03:20:22.308Z,1.10
2019-03-20T03:22:53.662Z,1.24
2019-03-20T03:25:26.038Z,1.31
2019-03-20T03:27:57.236Z,1.43
2019-03-20T03:30:28.521Z,1.44
2019-03-20T03:32:59.793Z,1.39
2019-03-20T03:35:31.192Z,1.40
2019-03-20T03:38:02.510Z,1.45
2019-03-20T03:40:34.962Z,1.43
2019-03-20T03:43:06.239Z,1.35
2019-03-20T03:45:37.448Z,1.42
2019-03-20T03:48:08.783Z,1.46
2019-03-20T03:50:40.041Z,1.44
2019-03-20T03:53:11.338Z,1.37
2019-03-20T03:55:42.661Z,1.30
2019-03-20T03:58:13.918Z,1.20
2019-03-20T04:00:45.320Z,1.13
2019-03-20T04:03:16.608Z,1.12
2019-03-20T04:05:47.887Z,1.15
2019-03-20T04:08:19.154Z,1.24
2019-03-20T04:10:50.288Z,1.20
2019-03-20T04:13:21.632Z,1.30
2019-03-20T04:15:53.042Z,1.37
2019-03-20T04:18:24.299Z,1.57
2019-03-20T04:20:55.593Z,1.70
2019-03-20T04:23:26.997Z,1.91
2019-03-20T04:25:58.292Z,2.17
2019-03-20T04:28:29.514Z,2.41
2019-03-20T04:31:00.738Z,2.63
2019-03-20T04:33:32.041Z,2.78
2019-03-20T04:36:03.300Z,2.93
2019-03-20T04:38:34.577Z,3.02
2019-03-20T04:41:05.867Z,3.01
2019-03-20T04:43:37.003Z,2.97
2019-03-20T04:46:09.425Z,3.03
2019-03-20T04:48:40.725Z,2.98
2019-03-20T04:51:11.996Z,2.97
2019-03-20T04:53:43.303Z,2.98
2019-03-20T04:56:17.340Z,3.08
2019-03-20T04:58:48.614Z,3.10
2019-03-20T05:01:19.858Z,3.11
2019-03-20T05:03:51.116Z,3.16
2019-03-20T05:06:22.391Z,3.16
2019-03-20T05:08:54.809Z,3.18
2019-03-20T05:11:26.233Z,3.25
2019-03-20T05:13:57.438Z,3.27
2019-03-20T05:16:28.631Z,3.24
2019-03-20T05:18:59.846Z,3.26
2019-03-20T05:21:31.175Z,3.29
2019-03-20T05:24:02.481Z,3.27
2019-03-20T05:26:33.741Z,3.32
2019-03-20T05:29:05.154Z,3.29
2019-03-20T05:31:36.519Z,3.18
2019-03-20T05:34:07.716Z,3.31
2019-03-20T05:36:40.015Z,3.39
2019-03-20T05:39:11.339Z,3.38
2019-03-20T05:41:42.556Z,3.34
2019-03-20T05:44:13.877Z,3.28
2019-03-20T05:46:45.103Z,3.29
2019-03-20T05:49:16.507Z,3.27
2019-03-20T05:51:47.780Z,3.31
2019-03-20T05:54:20.153Z,3.38
2019-03-20T05:56:51.437Z,3.54
2019-03-20T05:59:22.710Z,3.59
2019-03-20T06:01:54.005Z,3.55
2019-03-20T06:04:25.308Z,3.60
2019-03-20T06:06:56.640Z,3.63
2019-03-20T06:09:27.918Z,3.70
2019-03-20T06:11:59.207Z,3.69
2019-03-20T06:14:30.497Z,3.73
2019-03-20T06:17:01.771Z,3.80
2019-03-20T06:19:33.231Z,3.96
2019-03-20T06:22:04.505Z,3.82
2019-03-20T06:24:35.856Z,3.95
2019-03-20T06:27:07.146Z,3.99
2019-03-20T06:29:38.349Z,4.07
2019-03-20T06:32:10.247Z,4.08
2019-03-20T06:34:41.547Z,4.15
2019-03-20T06:37:12.931Z,4.39
2019-03-20T06:39:44.159Z,4.53
2019-03-20T06:42:15.494Z,4.57
2019-03-20T06:44:46.854Z,4.74
2019-03-20T06:47:18.201Z,4.75
2019-03-20T06:49:49.513Z,4.82
2019-03-20T06:52:20.854Z,4.79
2019-03-20T06:54:52.085Z,4.88
2019-03-20T06:57:23.500Z,4.85
2019-03-20T07:00:17.431Z,5.04
2019-03-20T07:02:49.262Z,5.19
2019-03-20T07:05:57.131Z,5.48
2019-03-20T07:08:31.653Z,5.46
2019-03-20T07:11:08.402Z,5.57
2019-03-20T07:13:39.780Z,5.68
2019-03-20T07:16:10.994Z,5.75
2019-03-20T07:18:44.592Z,5.72
2019-03-20T07:21:18.486Z,5.88
2019-03-20T07:23:48.929Z,5.95
2019-03-20T07:26:20.131Z,5.90
2019-03-20T07:28:51.461Z,5.89
2019-03-20T07:31:22.651Z,6.04
2019-03-20T07:33:54.197Z,6.22
2019-03-20T07:36:25.522Z,6.27
2019-03-20T07:38:57.873Z,6.32
2019-03-20T07:41:29.182Z,6.34
2019-03-20T07:44:00.445Z,6.48
2019-03-20T07:46:31.951Z,6.63
2019-03-20T07:49:03.219Z,6.79
2019-03-20T07:51:34.464Z,6.89
2019-03-20T07:54:05.797Z,7.08
2019-03-20T07:56:37.157Z,7.02
2019-03-20T07:59:08.393Z,7.06
2019-03-20T08:01:39.732Z,6.97
2019-03-20T08:04:11.327Z,7.16
2019-03-20T08:06:42.469Z,7.21
2019-03-20T08:09:13.718Z,7.50
2019-03-20T08:11:44.933Z,7.65
2019-03-20T08:14:17.133Z,7.77
2019-03-20T08:16:48.497Z,7.93
2019-03-20T08:19:19.642Z,8.13
2019-03-20T08:21:51.053Z,8.16
2019-03-20T08:24:22.412Z,8.38
2019-03-20T08:26:53.667Z,8.41
2019-03-20T08:29:24.898Z,8.58
2019-03-20T08:31:56.175Z,8.71
2019-03-20T08:34:27.450Z,9.00
2019-03-20T08:36:59.299Z,9.35
2019-03-20T08:39:30.692Z,9.57
2019-03-20T08:42:02.509Z,9.87
2019-03-20T08:44:33.658Z,10.18
2019-03-20T08:47:05.016Z,10.58
2019-03-20T08:49:36.242Z,11.21
2019-03-20T08:52:07.511Z,11.73
2019-03-20T08:54:38.921Z,12.69
2019-03-20T08:57:10.182Z,13.62
2019-03-20T08:59:41.630Z,14.38
2019-03-20T09:02:12.980Z,15.07
2019-03-20T09:04:44.332Z,15.46
2019-03-20T09:07:15.495Z,15.68
2019-03-20T09:09:46.988Z,16.81
2019-03-20T09:12:18.709Z,17.32
2019-03-20T09:14:50.004Z,17.53
2019-03-20T09:17:21.408Z,17.76
2019-03-20T09:48:46.817Z,23.13
2019-03-20T09:51:19.379Z,23.21
2019-03-20T09:53:52.269Z,24.17
2019-03-20T09:56:23.860Z,24.05
2019-03-20T09:58:55.280Z,24.88
2019-03-20T10:01:26.523Z,24.25
2019-03-20T10:04:01.468Z,25.03
2019-03-20T10:06:32.675Z,25.09
2019-03-20T10:09:05.102Z,25.68
2019-03-20T10:11:36.537Z,25.22
2019-03-20T10:14:07.878Z,24.52
2019-03-20T10:16:39.056Z,25.05
2019-03-20T10:19:10.361Z,25.36
2019-03-20T10:21:41.633Z,26.81
2019-03-20T10:24:12.899Z,26.58
2019-03-20T10:26:44.202Z,25.64
2019-03-20T10:29:15.499Z,25.98
2019-03-20T10:31:46.991Z,26.25
2019-03-20T10:34:20.612Z,26.16
2019-03-20T10:36:51.926Z,27.80
2019-03-20T10:39:23.242Z,27.33
2019-03-20T10:41:54.584Z,27.25
2019-03-20T10:44:27.434Z,27.18
2019-03-20T10:47:00.161Z,28.21
2019-03-20T10:49:31.374Z,28.24
2019-03-20T10:52:02.710Z,27.81
2019-03-20T10:54:33.929Z,28.41
2019-03-20T10:57:05.206Z,27.00
2019-03-20T10:59:36.587Z,27.50
2019-03-20T11:02:07.722Z,27.93
2019-03-20T11:04:38.988Z,28.59
2019-03-20T11:07:10.140Z,28.02
2019-03-20T11:09:41.486Z,28.65
2019-03-20T11:12:14.236Z,28.90
2019-03-20T11:14:45.887Z,28.66
2019-03-20T11:17:17.171Z,28.82
2019-03-20T11:19:48.433Z,28.68
2019-03-20T11:22:20.159Z,28.72
2019-03-20T11:24:51.421Z,29.31
2019-03-20T11:27:22.711Z,29.21
2019-03-20T11:29:53.910Z,28.40
2019-03-20T11:32:26.899Z,28.35
2019-03-20T11:34:58.268Z,28.74
2019-03-20T11:37:29.513Z,29.66
2019-03-20T11:40:00.821Z,30.17
2019-03-20T11:42:32.333Z,31.04
2019-03-20T11:45:04.474Z,30.20
